createdAt,value
2022-11-16T00:00:05.939Z,100037.78
2022-11-16T00:02:34.101Z,100031.47
2022-11-16T00:05:01.137Z,100037.59
2022-11-16T00:07:28.154Z,100028.78
2022-11-16T00:09:55.203Z,100021.16
2022-11-16T00:12:21.810Z,100021.66
2022-11-16T00:14:48.804Z,100021.47
2022-11-16T00:17:15.467Z,100016.16
2022-11-16T00:19:42.455Z,100019.66
2022-11-16T00:22:08.998Z,100016.50
2022-11-16T00:24:35.587Z,100021.47
2022-11-16T00:27:02.179Z,100018.66
2022-11-16T00:29:29.273Z,100028.47
2022-11-16T00:31:56.022Z,100014.66
2022-11-16T00:34:23.687Z,100024.81
2022-11-16T00:36:51.243Z,100015.50
2022-11-16T00:39:18.727Z,100017.66
2022-11-16T00:41:46.800Z,100013.34
2022-11-16T00:44:14.053Z,100000.03
2022-11-16T00:46:40.643Z,100008.00
2022-11-16T00:49:07.572Z,100010.84
2022-11-16T00:51:35.491Z,100010.69
2022-11-16T00:54:03.467Z,100018.66
2022-11-16T00:56:30.626Z,100016.00
2022-11-16T00:58:57.700Z,100009.84
2022-11-16T01:01:24.776Z,100000.38
2022-11-16T01:03:52.050Z,99996.59
2022-11-16T01:06:18.812Z,99998.38
2022-11-16T01:08:45.838Z,99996.88
2022-11-16T01:11:35.617Z,99993.22
2022-11-16T01:14:05.478Z,100004.69
2022-11-16T01:16:32.377Z,100004.53
2022-11-16T01:18:59.645Z,99996.06
2022-11-16T01:21:26.231Z,99995.88
2022-11-16T01:23:52.830Z,99999.38
2022-11-16T01:26:19.822Z,99994.22
2022-11-16T01:28:46.940Z,99995.72
2022-11-16T01:31:14.355Z,99993.06
2022-11-16T01:33:41.475Z,99990.41
2022-11-16T01:36:14.568Z,99983.59
2022-11-16T01:38:43.763Z,99999.38
2022-11-16T01:41:15.864Z,99990.56
2022-11-16T01:43:55.021Z,99983.44
2022-11-16T01:46:22.158Z,99979.28
2022-11-16T01:48:53.712Z,99979.28
2022-11-16T01:51:21.329Z,99969.63
2022-11-16T01:53:48.437Z,99972.28
2022-11-16T01:56:15.491Z,99970.00
2022-11-16T01:58:42.651Z,99970.28
2022-11-16T02:01:09.253Z,99974.13
2022-11-16T02:03:38.292Z,99962.66
2022-11-16T02:06:20.088Z,99971.13
2022-11-16T02:09:19.064Z,99968.47
2022-11-16T02:12:02.058Z,99960.84
2022-11-16T02:15:05.505Z,99963.69
2022-11-16T02:17:56.371Z,99965.16
2022-11-16T02:20:38.324Z,99959.00
2022-11-16T02:23:23.697Z,99956.50
2022-11-16T02:25:52.995Z,99967.81
2022-11-16T02:28:38.670Z,99960.84
2022-11-16T02:31:09.160Z,99959.00
2022-11-16T02:33:40.741Z,99957.53
2022-11-16T02:36:13.779Z,99963.50
2022-11-16T02:38:46.356Z,99957.72
2022-11-16T02:41:20.371Z,99956.34
2022-11-16T02:43:54.978Z,99958.16
2022-11-16T02:46:27.436Z,99955.34
2022-11-16T02:48:58.254Z,99957.34
2022-11-16T02:51:28.904Z,99958.38
2022-11-16T02:54:17.197Z,99951.56
2022-11-16T02:56:56.660Z,99954.06
2022-11-16T02:59:28.388Z,99956.50
2022-11-16T03:02:05.134Z,99955.50
2022-11-16T03:04:38.875Z,99944.59
2022-11-16T03:07:11.497Z,99953.06
2022-11-16T03:09:41.870Z,99961.03
2022-11-16T03:12:14.210Z,99955.72
2022-11-16T03:14:55.983Z,99954.88
2022-11-16T03:17:34.248Z,99955.88
2022-11-16T03:20:14.296Z,99962.03
2022-11-16T03:22:50.154Z,99954.88
2022-11-16T03:25:17.949Z,99964.03
2022-11-16T03:27:49.304Z,99956.88
2022-11-16T03:30:24.303Z,99959.72
2022-11-16T03:33:17.467Z,99961.38
2022-11-16T03:35:56.917Z,99959.03
2022-11-16T03:38:26.607Z,99963.19
2022-11-16T03:40:59.385Z,99959.88
2022-11-16T03:43:27.737Z,99954.91
2022-11-16T03:45:54.940Z,99963.19
2022-11-16T03:48:21.496Z,99957.22
2022-11-16T03:50:48.724Z,99966.69
2022-11-16T03:53:15.815Z,99965.84
2022-11-16T03:55:48.494Z,99967.69
2022-11-16T03:58:18.616Z,99963.19
2022-11-16T04:00:46.047Z,99974.66
2022-11-16T04:03:12.661Z,99970.69
2022-11-16T04:05:57.686Z,99975.66
2022-11-16T04:08:42.594Z,99972.16
2022-11-16T04:11:31.699Z,99973.50
2022-11-16T04:14:17.358Z,99980.31
2022-11-16T04:17:02.638Z,99976.16
2022-11-16T04:19:47.701Z,99972.69
2022-11-16T04:22:40.305Z,99978.47
2022-11-16T04:25:16.046Z,99977.50
2022-11-16T04:28:01.494Z,99982.81
2022-11-16T04:30:48.069Z,99980.31
2022-11-16T04:33:33.556Z,99973.34
2022-11-16T04:36:20.691Z,99985.81
2022-11-16T04:38:47.430Z,99988.28
2022-11-16T04:41:33.928Z,99982.13
2022-11-16T04:44:00.906Z,99981.47
2022-11-16T04:46:45.821Z,99983.97
2022-11-16T04:49:12.887Z,99985.63
2022-11-16T04:51:40.008Z,99988.63
2022-11-16T04:54:06.496Z,100003.25
2022-11-16T04:56:33.551Z,100004.91
2022-11-16T04:59:00.137Z,100006.06
2022-11-16T05:01:45.272Z,100000.59
2022-11-16T05:04:13.135Z,99987.34
2022-11-16T05:06:40.101Z,100005.25
2022-11-16T05:09:07.896Z,99999.75
2022-11-16T05:11:34.971Z,99988.47
2022-11-16T05:14:02.529Z,99999.75
2022-11-16T05:16:29.080Z,100001.59
2022-11-16T05:19:14.210Z,100003.41
2022-11-16T05:21:41.158Z,99998.94
2022-11-16T05:24:26.642Z,99991.94
2022-11-16T05:26:53.590Z,99994.94
2022-11-16T05:29:20.152Z,99993.66
2022-11-16T05:31:47.103Z,99988.97
2022-11-16T05:34:13.874Z,100006.41
2022-11-16T05:36:40.436Z,100008.22
2022-11-16T05:39:07.709Z,100008.22
2022-11-16T05:41:34.365Z,100007.56
2022-11-16T05:44:00.958Z,100013.53
2022-11-16T05:46:27.925Z,100009.22
2022-11-16T05:48:54.940Z,100011.25
2022-11-16T05:51:21.776Z,100004.63
2022-11-16T05:53:49.518Z,100003.63
2022-11-16T05:56:16.847Z,100013.25
2022-11-16T05:58:43.871Z,100021.69
2022-11-16T06:01:10.502Z,100007.28
2022-11-16T06:03:37.163Z,100022.88
2022-11-16T06:06:05.284Z,100033.53
2022-11-16T06:08:32.572Z,100029.38
2022-11-16T06:11:08.105Z,100039.66
2022-11-16T06:13:35.967Z,100038.63
2022-11-16T06:16:04.478Z,100043.94
2022-11-16T06:18:32.778Z,100042.13
2022-11-16T06:21:00.497Z,100045.44
2022-11-16T06:23:27.057Z,100035.81
2022-11-16T06:25:55.125Z,100039.81
2022-11-16T06:28:22.956Z,100035.47
2022-11-16T06:30:50.293Z,100039.13
2022-11-16T06:33:17.740Z,100042.47
2022-11-16T06:35:44.365Z,100039.31
2022-11-16T06:38:11.451Z,100029.50
2022-11-16T06:40:38.817Z,100032.81
2022-11-16T06:43:05.842Z,100034.47
2022-11-16T06:45:32.385Z,100038.31
2022-11-16T06:47:58.901Z,100041.47
2022-11-16T06:50:25.419Z,100034.47
2022-11-16T06:52:51.930Z,100040.47
2022-11-16T06:55:18.570Z,100050.09
2022-11-16T06:57:46.290Z,100050.94
2022-11-16T07:00:13.465Z,100054.59
2022-11-16T07:02:40.849Z,100056.09
2022-11-16T07:05:08.050Z,100052.75
2022-11-16T07:07:35.162Z,100051.75
2022-11-16T07:10:02.180Z,100054.41
2022-11-16T07:12:28.810Z,100057.38
2022-11-16T07:14:55.353Z,100054.88
2022-11-16T07:17:22.338Z,100053.88
2022-11-16T07:19:49.354Z,100058.56
2022-11-16T07:22:15.897Z,100055.09
2022-11-16T07:24:42.904Z,100066.72
2022-11-16T07:27:09.463Z,100068.53
2022-11-16T07:29:35.957Z,100073.69
2022-11-16T07:32:02.484Z,100080.84
2022-11-16T07:34:29.017Z,100081.84
2022-11-16T07:36:56.436Z,100085.50
2022-11-16T07:39:23.016Z,100082.34
2022-11-16T07:41:53.059Z,100098.28
2022-11-16T07:44:20.335Z,100092.97
2022-11-16T07:46:48.152Z,100110.25
2022-11-16T07:49:17.733Z,100112.75
2022-11-16T07:51:45.682Z,100104.59
2022-11-16T07:54:15.138Z,100106.75
2022-11-16T07:56:42.082Z,100119.22
2022-11-16T07:59:08.928Z,100125.34
2022-11-16T08:01:35.591Z,100118.22
2022-11-16T08:04:02.734Z,100126.81
2022-11-16T08:06:31.615Z,100115.72
2022-11-16T08:08:59.309Z,100131.19
2022-11-16T08:11:26.273Z,100135.97
2022-11-16T08:13:53.301Z,100139.78
2022-11-16T08:16:21.827Z,100129.81
2022-11-16T08:18:48.926Z,100130.94
2022-11-16T08:21:17.326Z,100128.78
2022-11-16T08:23:47.173Z,100128.44
2022-11-16T08:26:20.464Z,100136.72
2022-11-16T08:28:50.931Z,100123.78
2022-11-16T08:31:22.431Z,100140.84
2022-11-16T08:33:49.072Z,100129.22
2022-11-16T08:36:19.398Z,100137.50
2022-11-16T08:38:47.683Z,100128.34
2022-11-16T08:41:15.111Z,100151.63
2022-11-16T08:43:42.014Z,100149.59
2022-11-16T08:46:10.353Z,100141.09
2022-11-16T08:48:38.316Z,100143.59
2022-11-16T08:51:20.782Z,100149.06
2022-11-16T08:53:49.205Z,100151.22
2022-11-16T08:56:18.541Z,100163.16
2022-11-16T08:58:53.793Z,100163.50
2022-11-16T09:01:26.194Z,100152.66
2022-11-16T09:03:54.070Z,100146.16
2022-11-16T09:06:21.289Z,100157.28
2022-11-16T09:08:47.852Z,100149.50
2022-11-16T09:11:17.039Z,100149.94
2022-11-16T09:13:45.299Z,100160.44
2022-11-16T09:16:12.287Z,100167.09
2022-11-16T09:18:38.843Z,100158.94
2022-11-16T09:21:05.505Z,100152.63
2022-11-16T09:23:32.092Z,100158.41
2022-11-16T09:26:02.250Z,100154.91
2022-11-16T09:28:28.845Z,100160.91
2022-11-16T09:31:00.875Z,100162.38
2022-11-16T09:33:30.209Z,100169.53
2022-11-16T09:36:01.679Z,100163.38
2022-11-16T09:38:40.575Z,100165.22
2022-11-16T09:41:15.429Z,100161.38
2022-11-16T09:44:03.049Z,100153.56
2022-11-16T09:46:36.499Z,100172.69
2022-11-16T09:49:17.312Z,100169.19
2022-11-16T09:51:48.767Z,100174.69
2022-11-16T09:54:20.347Z,100183.53
2022-11-16T09:56:51.742Z,100181.03
2022-11-16T09:59:26.499Z,100178.38
2022-11-16T10:01:58.266Z,100175.59
2022-11-16T10:05:03.184Z,100186.19
2022-11-16T10:07:37.228Z,100181.03
2022-11-16T10:10:04.098Z,100168.44
2022-11-16T10:12:43.961Z,100180.19
2022-11-16T10:15:16.721Z,100193.53
2022-11-16T10:17:48.268Z,100185.53
2022-11-16T10:20:17.911Z,100188.03
2022-11-16T10:23:22.578Z,100187.19
2022-11-16T10:26:12.568Z,100181.03
2022-11-16T10:28:51.868Z,100179.38
2022-11-16T10:31:39.950Z,100182.69
2022-11-16T10:34:09.611Z,100182.69
2022-11-16T10:36:38.454Z,100178.38
2022-11-16T10:39:13.154Z,100181.88
2022-11-16T10:41:43.586Z,100185.34
2022-11-16T10:44:39.173Z,100183.53
2022-11-16T10:47:14.982Z,100177.38
2022-11-16T10:49:41.385Z,100180.84
2022-11-16T10:52:08.002Z,100168.38
2022-11-16T10:54:34.534Z,100169.19
2022-11-16T10:57:14.181Z,100166.38
2022-11-16T10:59:46.950Z,100169.03
2022-11-16T11:02:25.398Z,100165.53
2022-11-16T11:05:08.166Z,100173.69
2022-11-16T11:07:40.037Z,100168.38
2022-11-16T11:10:28.257Z,100180.69
2022-11-16T11:13:11.367Z,100177.19
2022-11-16T11:15:42.986Z,100182.34
2022-11-16T11:18:26.160Z,100168.84
2022-11-16T11:21:06.494Z,100168.84
2022-11-16T11:23:52.387Z,100168.03
2022-11-16T11:26:24.903Z,100171.34
2022-11-16T11:28:51.749Z,100169.69
2022-11-16T11:31:26.132Z,100172.34
2022-11-16T11:33:57.156Z,100171.69
2022-11-16T11:36:35.584Z,100173.00
2022-11-16T11:39:12.939Z,100166.19
2022-11-16T11:41:59.831Z,100165.84
2022-11-16T11:44:38.588Z,100151.69
2022-11-16T11:50:27.094Z,100153.16
2022-11-16T11:53:05.566Z,100151.31
2022-11-16T11:55:32.126Z,100146.81
2022-11-16T11:58:00.239Z,100145.31
2022-11-16T12:00:26.839Z,100140.47
2022-11-16T12:03:36.314Z,100136.00
2022-11-16T12:06:19.876Z,100133.31
2022-11-16T12:09:08.399Z,100136.00
2022-11-16T12:11:53.565Z,100142.97
2022-11-16T12:14:47.800Z,100138.66
2022-11-16T12:17:36.515Z,100138.66
2022-11-16T12:20:21.468Z,100141.97
2022-11-16T12:23:06.456Z,100138.31
2022-11-16T12:25:52.044Z,100142.63
2022-11-16T12:28:21.204Z,100131.13
2022-11-16T12:31:13.592Z,100127.63
2022-11-16T12:33:59.794Z,100132.31
2022-11-16T12:36:40.296Z,100138.31
2022-11-16T12:39:20.929Z,100141.44
2022-11-16T12:41:55.279Z,100141.28
2022-11-16T12:44:36.754Z,100139.44
2022-11-16T12:47:30.094Z,100135.94
2022-11-16T12:50:15.424Z,100128.56
2022-11-16T12:53:10.540Z,100131.63
2022-11-16T12:55:43.319Z,100133.91
2022-11-16T12:58:30.753Z,100137.22
2022-11-16T13:01:19.001Z,100117.09
2022-11-16T13:03:57.715Z,100117.75
2022-11-16T13:06:33.031Z,100115.06
2022-11-16T13:09:15.765Z,100116.72
2022-11-16T13:11:46.150Z,100103.13
2022-11-16T13:14:19.529Z,100114.56
2022-11-16T13:16:47.741Z,100103.06
2022-11-16T13:19:17.134Z,100098.06
2022-11-16T13:21:59.915Z,100088.91
2022-11-16T13:24:46.621Z,100100.03
2022-11-16T13:27:30.319Z,100090.22
2022-11-16T13:30:00.320Z,100097.38
2022-11-16T13:32:33.967Z,100094.53
2022-11-16T13:35:03.693Z,100090.88
2022-11-16T13:37:39.796Z,100096.19
2022-11-16T13:40:06.317Z,100101.31
2022-11-16T13:42:43.989Z,100096.00
2022-11-16T13:45:20.737Z,100089.47
2022-11-16T13:47:56.004Z,100089.47
2022-11-16T13:50:33.125Z,100088.28
2022-11-16T13:56:04.672Z,100084.78
2022-11-16T13:58:33.965Z,100097.94
2022-11-16T14:01:15.795Z,100082.78
2022-11-16T14:03:48.169Z,100081.78
2022-11-16T14:06:34.904Z,100083.44
2022-11-16T14:09:01.445Z,100074.59
2022-11-16T14:11:31.825Z,100073.59
2022-11-16T14:14:01.507Z,100081.41
2022-11-16T14:16:29.095Z,100087.59
2022-11-16T14:18:59.182Z,100081.41
2022-11-16T14:21:26.706Z,100078.56
2022-11-16T14:24:01.782Z,100066.44
2022-11-16T14:26:40.107Z,100073.25
2022-11-16T14:29:58.219Z,100079.19
2022-11-16T14:32:32.731Z,100074.03
2022-11-16T14:35:03.047Z,100062.94
2022-11-16T14:37:40.964Z,100069.38
2022-11-16T14:40:20.322Z,100066.53
2022-11-16T14:45:40.155Z,100068.53
2022-11-16T14:48:19.161Z,100055.38
2022-11-16T14:50:58.981Z,100053.75
2022-11-16T14:53:27.815Z,100059.34
2022-11-16T14:56:07.375Z,100061.19
2022-11-16T14:58:33.996Z,100055.84
2022-11-16T15:01:04.142Z,100051.91
2022-11-16T15:03:58.812Z,100067.34
2022-11-16T15:06:26.827Z,100051.53
2022-11-16T15:08:59.505Z,100038.38
2022-11-16T15:11:56.753Z,100034.53
2022-11-16T15:14:28.375Z,100030.19
2022-11-16T15:16:56.790Z,100026.69
2022-11-16T15:19:24.210Z,100016.44
2022-11-16T15:21:56.562Z,100016.44
2022-11-16T15:24:31.404Z,100017.88
2022-11-16T15:27:26.298Z,100007.22
2022-11-16T15:29:52.840Z,100004.53
2022-11-16T15:32:20.001Z,99999.59
2022-11-16T15:34:50.991Z,100008.44
2022-11-16T15:37:27.220Z,99996.28
2022-11-16T15:39:54.920Z,99988.28
2022-11-16T15:42:22.943Z,99988.72
2022-11-16T15:44:50.228Z,99985.81
2022-11-16T15:47:17.246Z,99987.94
2022-11-16T15:49:49.588Z,99983.78
2022-11-16T15:52:42.460Z,99982.78
2022-11-16T15:55:27.726Z,99976.63
2022-11-16T15:57:59.258Z,99960.81
2022-11-16T16:00:27.038Z,99959.31
2022-11-16T16:03:00.054Z,99955.34
2022-11-16T16:05:44.743Z,99948.66
2022-11-16T16:08:25.929Z,99951.31
2022-11-16T16:10:59.621Z,99950.31
2022-11-16T16:13:30.350Z,99938.53
2022-11-16T16:16:19.303Z,99949.13
2022-11-16T16:18:46.135Z,99946.47
2022-11-16T16:21:14.255Z,99947.28
2022-11-16T16:23:47.988Z,99936.97
2022-11-16T16:26:18.873Z,99942.78
2022-11-16T16:28:45.732Z,99946.47
2022-11-16T16:31:13.062Z,99943.16
2022-11-16T16:33:39.840Z,99942.13
2022-11-16T16:36:07.636Z,99952.44
2022-11-16T16:38:34.729Z,99960.03
2022-11-16T16:41:02.885Z,99945.72
2022-11-16T16:43:30.525Z,99933.78
2022-11-16T16:46:00.636Z,99940.19
2022-11-16T16:48:27.263Z,99931.19
2022-11-16T16:50:53.934Z,99928.53
2022-11-16T16:53:21.036Z,99929.34
2022-11-16T16:55:48.973Z,99929.34
2022-11-16T16:58:16.111Z,99931.00
2022-11-16T17:00:42.886Z,99931.84
2022-11-16T17:03:09.623Z,99930.63
2022-11-16T17:05:37.275Z,99932.13
2022-11-16T17:08:04.413Z,99930.47
2022-11-16T17:10:30.951Z,99927.63
2022-11-16T17:12:58.002Z,99912.69
2022-11-16T17:15:25.284Z,99913.63
2022-11-16T17:17:52.376Z,99918.97
2022-11-16T17:20:18.908Z,99922.88
2022-11-16T17:22:46.060Z,99923.72
2022-11-16T17:25:12.794Z,99917.56
2022-11-16T17:27:39.385Z,99913.25
2022-11-16T17:30:07.355Z,99903.59
2022-11-16T17:32:33.959Z,99900.72
2022-11-16T17:35:01.462Z,99913.25
2022-11-16T17:37:28.437Z,99901.97
2022-11-16T17:39:55.441Z,99900.94
2022-11-16T17:42:22.498Z,99901.97
2022-11-16T17:44:49.657Z,99908.94
2022-11-16T17:47:16.702Z,99918.78
2022-11-16T17:49:43.267Z,99910.97
2022-11-16T17:52:10.450Z,99909.31
2022-11-16T17:54:37.013Z,99908.84
2022-11-16T17:57:04.081Z,99904.97
2022-11-16T17:59:32.840Z,99901.69
2022-11-16T18:01:59.381Z,99894.50
2022-11-16T18:04:26.418Z,99887.34
2022-11-16T18:06:52.982Z,99894.50
2022-11-16T18:09:25.786Z,99899.84
2022-11-16T18:11:52.781Z,99899.00
2022-11-16T18:14:19.782Z,99898.34
2022-11-16T18:16:47.934Z,99895.69
2022-11-16T18:19:19.131Z,99886.03
2022-11-16T18:21:47.328Z,99873.28
2022-11-16T18:24:13.893Z,99873.91
2022-11-16T18:26:41.112Z,99868.75
2022-11-16T18:29:12.181Z,99867.97
2022-11-16T18:31:39.233Z,99862.63
2022-11-16T18:34:06.069Z,99864.47
2022-11-16T18:36:33.025Z,99875.31
2022-11-16T18:38:59.565Z,99881.00
2022-11-16T18:41:29.343Z,99867.03
2022-11-16T18:43:58.366Z,99879.16
2022-11-16T18:46:30.339Z,99872.00
2022-11-16T18:48:58.074Z,99864.81
2022-11-16T18:51:27.072Z,99863.16
2022-11-16T18:53:54.331Z,99856.19
2022-11-16T18:56:21.077Z,99851.88
2022-11-16T18:58:52.205Z,99842.22
2022-11-16T19:01:24.141Z,99833.38
2022-11-16T19:03:51.802Z,99832.75
2022-11-16T19:06:19.227Z,99823.72
2022-11-16T19:08:51.755Z,99830.06
2022-11-16T19:11:18.592Z,99825.75
2022-11-16T19:13:45.174Z,99824.91
2022-11-16T19:16:13.516Z,99822.25
2022-11-16T19:18:40.244Z,99822.47
2022-11-16T19:21:12.380Z,99810.16
2022-11-16T19:23:41.005Z,99804.00
2022-11-16T19:26:07.628Z,99799.69
2022-11-16T19:28:41.645Z,99788.75
2022-11-16T19:31:08.300Z,99796.38
2022-11-16T19:33:35.409Z,99785.72
2022-11-16T19:36:10.845Z,99768.25
2022-11-16T19:38:38.749Z,99769.44
2022-11-16T19:41:06.141Z,99763.47
2022-11-16T19:43:33.582Z,99765.75
2022-11-16T19:46:05.453Z,99757.78
2022-11-16T19:48:33.585Z,99755.09
2022-11-16T19:51:11.773Z,99738.66
2022-11-16T19:53:39.379Z,99730.03
2022-11-16T19:56:07.130Z,99726.38
2022-11-16T19:58:38.322Z,99722.66
2022-11-16T20:01:08.164Z,99723.06
2022-11-16T20:03:35.077Z,99698.75
2022-11-16T20:06:10.638Z,99717.28
2022-11-16T20:08:38.362Z,99700.38
2022-11-16T20:11:22.477Z,99704.97
2022-11-16T20:13:50.412Z,99694.69
2022-11-16T20:16:19.471Z,99698.81
2022-11-16T20:18:46.793Z,99696.16
2022-11-16T20:21:23.275Z,99696.31
2022-11-16T20:23:51.668Z,99684.66
2022-11-16T20:26:19.378Z,99684.84
2022-11-16T20:28:46.487Z,99673.34
2022-11-16T20:31:17.517Z,99676.84
2022-11-16T20:33:51.552Z,99669.22
2022-11-16T20:36:18.787Z,99667.38
2022-11-16T20:38:45.540Z,99649.16
2022-11-16T20:41:15.117Z,99651.63
2022-11-16T20:43:43.076Z,99645.47
2022-11-16T20:46:12.120Z,99643.81
2022-11-16T20:48:40.605Z,99636.38
2022-11-16T20:51:08.721Z,99640.50
2022-11-16T20:53:35.795Z,99638.22
2022-11-16T20:56:04.474Z,99635.38
2022-11-16T20:58:32.555Z,99627.19
2022-11-16T21:01:07.219Z,99617.53
2022-11-16T21:03:34.539Z,99614.25
2022-11-16T21:06:01.975Z,99614.25
2022-11-16T21:08:32.304Z,99608.09
2022-11-16T21:10:58.846Z,99603.78
2022-11-16T21:13:44.254Z,99590.44
2022-11-16T21:16:13.673Z,99593.31
2022-11-16T21:18:41.454Z,99587.97
2022-11-16T21:21:14.076Z,99592.47
2022-11-16T21:23:51.445Z,99584.66
2022-11-16T21:26:20.716Z,99584.66
2022-11-16T21:28:48.233Z,99579.34
2022-11-16T21:31:25.494Z,99576.88
2022-11-16T21:33:53.001Z,99552.47
2022-11-16T21:36:25.304Z,99545.50
2022-11-16T21:38:52.695Z,99543.28
2022-11-16T21:41:21.428Z,99532.00
2022-11-16T21:43:48.118Z,99524.81
2022-11-16T21:46:16.990Z,99519.88
2022-11-16T21:48:44.569Z,99523.16
2022-11-16T21:51:14.168Z,99515.19
2022-11-16T21:53:41.028Z,99500.56
2022-11-16T21:56:11.933Z,99512.03
2022-11-16T21:58:39.167Z,99508.41
2022-11-16T22:01:06.111Z,99498.72
2022-11-16T22:03:33.295Z,99503.06
2022-11-16T22:06:20.677Z,99489.91
2022-11-16T22:08:48.263Z,99482.28
2022-11-16T22:11:15.944Z,99467.97
2022-11-16T22:13:43.662Z,99464.47
2022-11-16T22:16:13.331Z,99456.69
2022-11-16T22:18:39.938Z,99453.00
2022-11-16T22:21:07.285Z,99447.03
2022-11-16T22:23:35.422Z,99441.72
2022-11-16T22:26:04.438Z,99435.56
2022-11-16T22:28:31.987Z,99425.13
2022-11-16T22:31:00.366Z,99410.34
2022-11-16T22:33:27.199Z,99400.09
2022-11-16T22:35:54.269Z,99399.06
2022-11-16T22:38:20.786Z,99390.25
2022-11-16T22:40:54.490Z,99388.59
2022-11-16T22:43:23.491Z,99374.66
2022-11-16T22:45:50.765Z,99364.59
2022-11-16T22:48:18.229Z,99356.22
2022-11-16T22:50:44.959Z,99353.75
2022-11-16T22:53:11.603Z,99346.81
2022-11-16T22:55:38.979Z,99330.81
2022-11-16T22:58:06.306Z,99339.00
2022-11-16T23:00:39.016Z,99327.53
2022-11-16T23:03:08.514Z,99314.41
2022-11-16T23:05:35.194Z,99318.91
2022-11-16T23:08:02.274Z,99304.13
2022-11-16T23:10:29.116Z,99293.31
2022-11-16T23:13:14.446Z,99290.84
2022-11-16T23:15:50.052Z,99286.53
2022-11-16T23:18:17.264Z,99286.72
2022-11-16T23:21:02.834Z,99284.06
2022-11-16T23:23:47.932Z,99266.03
2022-11-16T23:26:42.337Z,99269.28
2022-11-16T23:29:10.820Z,99261.91
2022-11-16T23:31:38.009Z,99252.09
2022-11-16T23:34:05.751Z,99248.41
2022-11-16T23:36:32.338Z,99241.44
2022-11-16T23:38:58.940Z,99223.00
2022-11-16T23:41:44.134Z,99223.81
2022-11-16T23:44:11.251Z,99218.88
2022-11-16T23:46:37.841Z,99209.88
2022-11-16T23:49:04.361Z,99212.72
2022-11-16T23:51:30.957Z,99200.44
2022-11-16T23:53:57.554Z,99188.97
2022-11-16T23:56:24.373Z,99184.84
2022-11-16T23:58:50.895Z,99178.53
